Terminal Aerodrome Forecast
Issued by NWS Wakefield, VA

Home | Current Version | Previous Version | Text Only | Print | Product List | Glossary On
Versions: 1 2 3 4 5 6 7 8 9 10 11 12 13 14 15 16 17 18
000
FTUS41 KAKQ 021720
TAFSBY
TAF
KSBY 021720Z 0218/0318 05011KT P6SM SHRA OVC007
     FM030000 03008KT 5SM BR OVC004
     FM030800 05008KT 3SM -RA BR OVC003=

USA.gov is the U.S. government's official web portal to all federal, state and local government web resources and services.